createdAt,value
2018-07-05T00:03:00.057Z,43.40
2018-07-05T00:08:14.672Z,43.20
2018-07-05T00:13:29.227Z,43.40
2018-07-05T00:18:43.954Z,43.50
2018-07-05T00:23:58.562Z,43.60
2018-07-05T00:29:13.340Z,44.00
2018-07-05T00:34:28.224Z,44.30
2018-07-05T00:39:43.112Z,44.30
2018-07-05T00:44:57.968Z,44.40
2018-07-05T00:50:12.702Z,44.30
2018-07-05T00:55:27.368Z,44.70
2018-07-05T01:00:42.048Z,44.70
2018-07-05T01:05:56.652Z,44.50
2018-07-05T01:11:11.292Z,45.00
2018-07-05T01:16:25.982Z,44.90
2018-07-05T01:21:40.828Z,45.00
2018-07-05T01:26:55.715Z,45.00
2018-07-05T01:32:10.466Z,45.40
2018-07-05T01:37:25.172Z,45.30
2018-07-05T01:42:39.628Z,45.30
2018-07-05T01:47:54.212Z,45.40
2018-07-05T01:53:08.992Z,45.60
2018-07-05T01:58:23.589Z,45.60
2018-07-05T02:03:38.296Z,45.70
2018-07-05T02:08:52.902Z,45.80
2018-07-05T02:14:07.530Z,45.80
2018-07-05T02:19:22.141Z,45.90
2018-07-05T02:24:36.788Z,45.60
2018-07-05T02:29:51.501Z,46.10
2018-07-05T02:35:06.187Z,45.90
2018-07-05T02:40:20.940Z,46.20
2018-07-05T02:45:35.752Z,46.20
2018-07-05T02:50:50.390Z,46.30
2018-07-05T02:56:05.252Z,46.50
2018-07-05T03:01:19.926Z,46.30
2018-07-05T03:06:34.648Z,46.40
2018-07-05T03:11:49.334Z,46.40
2018-07-05T03:17:03.872Z,46.30
2018-07-05T03:22:18.484Z,46.50
2018-07-05T03:27:33.040Z,46.40
2018-07-05T03:32:47.605Z,46.60
2018-07-05T03:38:02.206Z,46.80
2018-07-05T03:43:16.839Z,46.80
2018-07-05T03:48:31.980Z,46.90
2018-07-05T03:53:46.745Z,47.00
2018-07-05T03:59:01.420Z,46.90
2018-07-05T04:04:15.980Z,47.00
2018-07-05T04:09:30.629Z,47.20
2018-07-05T04:14:45.282Z,47.70
2018-07-05T04:20:00.086Z,48.10
2018-07-05T04:25:14.762Z,49.00
2018-07-05T04:30:29.504Z,48.50
2018-07-05T04:35:44.207Z,48.50
2018-07-05T04:40:59.032Z,48.60
2018-07-05T04:46:13.893Z,48.80
2018-07-05T04:51:28.589Z,49.00
2018-07-05T04:56:43.137Z,48.70
2018-07-05T05:01:57.892Z,49.20
2018-07-05T05:07:12.652Z,49.30
2018-07-05T05:12:27.456Z,49.70
2018-07-05T05:17:42.261Z,49.80
2018-07-05T05:22:57.035Z,50.10
2018-07-05T05:28:11.824Z,50.00
2018-07-05T05:33:26.500Z,50.30
2018-07-05T05:38:41.138Z,50.60
2018-07-05T05:43:55.857Z,50.90
2018-07-05T05:49:10.560Z,51.20
2018-07-05T05:54:25.116Z,51.30
2018-07-05T05:59:39.637Z,51.60
2018-07-05T06:04:54.371Z,51.60
2018-07-05T06:10:08.962Z,51.80
2018-07-05T06:15:23.678Z,51.60
2018-07-05T06:20:38.426Z,51.70
2018-07-05T06:25:53.280Z,51.80
2018-07-05T06:31:07.825Z,51.70
2018-07-05T06:36:22.440Z,51.70
2018-07-05T06:41:37.160Z,51.50
2018-07-05T06:46:52.485Z,51.60
2018-07-05T06:52:07.065Z,51.30
2018-07-05T06:57:21.660Z,51.40
2018-07-05T07:02:36.162Z,51.20
2018-07-05T07:07:50.663Z,50.90
2018-07-05T07:13:05.293Z,50.90
2018-07-05T07:18:19.948Z,50.20
2018-07-05T07:23:34.472Z,50.20
2018-07-05T07:28:49.160Z,49.70
2018-07-05T07:34:03.884Z,49.40
2018-07-05T07:39:18.583Z,49.30
2018-07-05T07:44:21.245Z,48.90
2018-07-05T07:49:23.552Z,49.20
2018-07-05T07:54:25.848Z,48.90
2018-07-05T07:59:28.196Z,48.50
2018-07-05T08:04:30.488Z,48.20
2018-07-05T08:09:32.812Z,47.80
2018-07-05T08:14:35.123Z,48.10
2018-07-05T08:19:37.434Z,48.00
2018-07-05T08:24:39.724Z,47.70
2018-07-05T08:34:44.576Z,46.70
2018-07-05T08:39:46.893Z,47.30
2018-07-05T08:49:51.792Z,46.40
2018-07-05T08:54:54.104Z,46.30
2018-07-05T08:59:56.720Z,45.80
2018-07-05T09:04:59.038Z,45.90
2018-07-05T09:10:01.356Z,45.50
2018-07-05T09:15:03.668Z,44.90
2018-07-05T09:20:05.969Z,44.40
2018-07-05T09:25:08.291Z,44.20
2018-07-05T09:30:10.625Z,44.40
2018-07-05T09:35:12.981Z,44.10
2018-07-05T09:40:15.285Z,43.30
2018-07-05T09:45:17.600Z,43.60
2018-07-05T09:50:19.926Z,43.40
2018-07-05T09:55:22.269Z,43.20
2018-07-05T10:00:29.902Z,42.70
2018-07-05T10:05:32.275Z,42.30
2018-07-05T10:10:34.618Z,42.10
2018-07-05T10:15:36.976Z,42.00
2018-07-05T10:20:39.312Z,41.70
2018-07-05T10:25:41.654Z,41.70
2018-07-05T10:30:56.372Z,41.50
2018-07-05T10:35:58.725Z,41.30
2018-07-05T10:41:13.447Z,41.50
2018-07-05T10:46:28.096Z,41.20
2018-07-05T10:51:42.657Z,41.10
2018-07-05T10:56:57.201Z,40.70
2018-07-05T11:02:11.806Z,40.70
2018-07-05T11:07:26.577Z,40.20
2018-07-05T11:12:41.156Z,40.20
2018-07-05T11:17:55.732Z,39.70
2018-07-05T11:23:10.376Z,39.30
2018-07-05T11:28:25.117Z,39.20
2018-07-05T11:33:39.933Z,39.60
2018-07-05T11:43:59.031Z,39.30
2018-07-05T11:49:13.730Z,39.70
2018-07-05T11:54:28.316Z,39.90
2018-07-05T11:59:43.206Z,39.70
2018-07-05T12:04:57.961Z,39.00
2018-07-05T12:10:12.734Z,39.10
2018-07-05T12:15:27.611Z,40.40
2018-07-05T12:20:42.404Z,41.90
2018-07-05T12:25:57.174Z,43.50
2018-07-05T12:31:12.061Z,45.50
2018-07-05T12:36:26.704Z,47.10
2018-07-05T12:41:41.538Z,49.60
2018-07-05T12:46:56.112Z,50.50
2018-07-05T12:52:10.829Z,50.70
2018-07-05T12:57:25.448Z,53.30
2018-07-05T13:02:39.998Z,54.90
2018-07-05T13:07:54.676Z,53.90
2018-07-05T13:13:09.329Z,53.60
2018-07-05T13:18:23.966Z,53.50
2018-07-05T13:23:38.678Z,53.10
2018-07-05T13:28:53.820Z,53.00
2018-07-05T13:34:08.589Z,52.30
2018-07-05T13:39:23.204Z,52.20
2018-07-05T13:44:37.898Z,52.30
2018-07-05T13:49:52.486Z,52.20
2018-07-05T13:55:07.176Z,51.80
2018-07-05T14:00:21.869Z,51.80
2018-07-05T14:05:36.482Z,51.90
2018-07-05T14:10:51.208Z,52.20
2018-07-05T14:16:05.922Z,52.20
2018-07-05T14:21:20.644Z,52.00
2018-07-05T14:26:35.325Z,51.70
2018-07-05T14:31:49.928Z,52.10
2018-07-05T14:37:04.630Z,52.10
2018-07-05T14:42:19.310Z,52.10
2018-07-05T14:47:34.107Z,52.60
2018-07-05T14:52:48.661Z,52.50
2018-07-05T14:58:03.216Z,52.90
2018-07-05T15:03:17.849Z,52.80
2018-07-05T15:08:32.610Z,53.10
2018-07-05T15:13:47.348Z,53.30
2018-07-05T15:19:02.012Z,53.80
2018-07-05T15:24:16.797Z,54.20
2018-07-05T15:29:31.288Z,54.70
2018-07-05T15:34:45.988Z,55.00
2018-07-05T15:40:00.674Z,55.30
2018-07-05T15:45:15.354Z,55.40
2018-07-05T15:50:33.625Z,55.30
2018-07-05T15:55:49.332Z,55.70
2018-07-05T16:01:04.009Z,55.60
2018-07-05T16:06:18.652Z,55.50
2018-07-05T16:11:33.514Z,55.70
2018-07-05T16:22:13.879Z,55.60
2018-07-05T16:27:28.489Z,55.80
2018-07-05T16:32:43.107Z,56.50
2018-07-05T16:37:57.985Z,56.10
2018-07-05T16:43:12.561Z,56.30
2018-07-05T16:48:27.133Z,56.80
2018-07-05T16:53:41.792Z,56.50
2018-07-05T16:58:56.549Z,56.70
2018-07-05T17:04:11.276Z,56.60
2018-07-05T17:09:26.070Z,56.30
2018-07-05T17:14:40.891Z,56.20
2018-07-05T17:19:55.446Z,56.40
2018-07-05T17:25:10.061Z,56.60
2018-07-05T17:30:24.714Z,56.50
2018-07-05T17:35:39.633Z,56.40
2018-07-05T17:46:02.887Z,55.60
2018-07-05T17:51:17.614Z,55.00
2018-07-05T17:56:32.346Z,54.80
2018-07-05T18:01:47.063Z,55.00
2018-07-05T18:07:01.807Z,54.10
2018-07-05T18:12:16.493Z,54.50
2018-07-05T18:17:31.227Z,54.60
2018-07-05T18:22:45.749Z,54.70
2018-07-05T18:28:00.477Z,54.80
2018-07-05T18:33:15.012Z,54.30
2018-07-05T18:38:29.831Z,54.40
2018-07-05T18:43:44.579Z,55.00
2018-07-05T18:48:59.209Z,55.30
2018-07-05T18:54:14.184Z,55.30
2018-07-05T18:59:28.907Z,55.40
2018-07-05T19:04:43.713Z,55.50
2018-07-05T19:09:58.442Z,55.80
2018-07-05T19:15:13.106Z,55.50
2018-07-05T19:20:27.786Z,55.40
2018-07-05T19:25:42.515Z,55.70
2018-07-05T19:30:57.285Z,56.30
2018-07-05T19:36:12.263Z,56.30
2018-07-05T19:41:26.882Z,55.90
2018-07-05T19:46:41.770Z,55.80
2018-07-05T19:51:56.375Z,56.40
2018-07-05T19:57:11.008Z,57.30
2018-07-05T20:07:32.082Z,56.30
2018-07-05T20:12:46.645Z,57.10
2018-07-05T20:18:01.335Z,57.20
2018-07-05T20:23:15.973Z,57.20
2018-07-05T20:28:30.655Z,57.30
2018-07-05T20:33:45.343Z,57.60
2018-07-05T20:39:00.042Z,57.60
2018-07-05T20:44:14.776Z,57.70
2018-07-05T20:49:29.515Z,57.70
2018-07-05T20:54:44.283Z,57.60
2018-07-05T20:59:58.965Z,58.50
2018-07-05T21:05:13.591Z,57.90
2018-07-05T21:10:28.466Z,57.80
2018-07-05T21:15:43.219Z,58.00
2018-07-05T21:20:57.952Z,57.80
2018-07-05T21:26:12.601Z,57.90
2018-07-05T21:31:27.229Z,58.00
2018-07-05T21:36:41.858Z,57.70
2018-07-05T21:47:05.037Z,58.10
2018-07-05T21:52:19.714Z,58.10
2018-07-05T21:57:34.381Z,57.90
2018-07-05T22:02:49.040Z,57.90
2018-07-05T22:08:03.714Z,58.00
2018-07-05T22:13:18.580Z,58.00
2018-07-05T22:18:38.963Z,58.20
2018-07-05T22:23:59.232Z,58.00
2018-07-05T22:29:19.341Z,58.10
2018-07-05T22:34:34.237Z,58.20
2018-07-05T22:39:48.870Z,58.40
2018-07-05T22:45:03.765Z,58.40
2018-07-05T22:50:18.615Z,58.60
2018-07-05T22:55:33.355Z,58.50
2018-07-05T23:00:47.983Z,58.10
2018-07-05T23:06:02.670Z,58.40
2018-07-05T23:11:17.329Z,58.20
2018-07-05T23:16:32.094Z,58.30
2018-07-05T23:21:46.846Z,58.20
2018-07-05T23:27:01.618Z,58.40
2018-07-05T23:32:16.244Z,58.30
2018-07-05T23:37:30.874Z,58.40
2018-07-05T23:42:45.505Z,58.40
2018-07-05T23:48:00.121Z,58.40
2018-07-05T23:53:14.910Z,58.50
2018-07-05T23:58:29.602Z,58.60
